Дата Пункты Температура Давл., мм. Влажн., % Ветер Погодные явления
Воздуха Воды Направл. Скорость
16.05.19 06:00 Одесса 16.0 14.0 756 87 Пн-С 5 06 ГОДИН
16.05.19 03:00 Одесса 17.0 14.0 757 85 Пн-С 5 03 ГОДИНИ
15.05.19 09:00 Одесса 19.0 14.0 758 73 Пн-З 2 21 ГОДИНУ
15.05.19 06:00 Одесса 21.0 14.0 758 65 С 2 18 ГОДИН
15.05.19 03:00 Одесса 22.0 14.0 759 61 Пн-С 3 15 ГОДИН
15.05.19 12:00 Одесса 17.0 14.0 761 84 Пн 0 12 ГОДИН
15.05.19 09:00 Одесса 16.0 14.0 759 93 С 3 09 ГОДИН
15.05.19 06:00 Одесса 14.0 14.0 759 95 Пд-С 1 06 ГОДИН
15.05.19 03:00 Одесса 14.0 14.0 759 96 Пн 0 03 ГОДИНИ
14.05.19 09:00 Одесса 15.0 14.0 760 82 Пд-З 1 21 ГОДИНУ
14.05.19 06:00 Одесса 17.0 15.0 760 88 Пд 2 18 ГОДИН
14.05.19 03:00 Одесса 18.0 15.0 761 81 Пд-С 2 15 ГОДИН
14.05.19 12:00 Одесса 17.0 14.0 761 87 Пн 0 12 ГОДИН
14.05.19 09:00 Одесса 16.0 14.0 761 84 Пн 1 09 ГОДИН
14.05.19 06:00 Одесса 14.0 14.0 761 88 Пн 1 06 ГОДИН
14.05.19 03:00 Одесса 14.0 14.0 762 92 Пн 0 03 ГОДИНИ
13.05.19 09:00 Одесса 16.0 14.0 762 81 Пн 0 21 ГОДИНУ
13.05.19 06:00 Одесса 19.0 14.0 762 71 Пд-С 2 18 ГОДИН
13.05.19 03:00 Одесса 19.0 14.0 762 67 С 1 15 ГОДИН
13.05.19 12:00 Одесса 18.0 14.0 763 75 С 1 12 ГОДИН
Количество строк
1 2 3 4 5 6 7 8 9 10
Page 3 of 491